Latest Weather Observations for Tocal

IDN60801

Issued at 6:35 pm EDT Thursday 27 November 2014 (issued every 30 minutes, with the page automatically refreshed every 10 minutes)

About weather observations | Map of weather stations | Latest weather observations for NSW | Other Formats
Station Details ID: 061250 Name: TOCAL AWS Lat: -32.63 Lon: 151.59 Height: 30.0 m
Data from the previous 72 hours. | See also: Recent months at Tocal
Date/Time
EDT
Temp
°C
App
Temp
°C
Dew
Point
Rel
Hum
%
Delta-T
°C
Wind Press
QNH
hPa
Press
MSL
hPa
Rain
since 9 am
mm
Dir
 
Spd
km/h
Gust
km/h
Spd
kts
Gust
kts
27/06:30pm 19.8 18.1 14.7 72 3.0 SE 17 26 9 14 - - 7.6
27/06:00pm 20.0 18.4 15.1 73 2.9 SE 17 28 9 15 - - 7.6
27/05:30pm 20.2 18.1 15.3 73 2.9 SE 20 33 11 18 - - 7.6
27/05:00pm 21.0 19.4 15.1 69 3.5 SE 17 30 9 16 - - 7.6
27/04:30pm 21.4 20.1 15.7 70 3.4 SSE 17 30 9 16 - - 7.6
27/04:00pm 21.2 20.3 15.9 72 3.2 SE 15 30 8 16 - - 7.6
27/03:30pm 21.2 20.7 16.0 72 3.1 SSE 13 20 7 11 - - 7.6
27/03:00pm 20.9 20.1 16.1 74 2.9 SE 15 26 8 14 - - 7.6
27/02:30pm 20.5 20.2 16.5 78 2.4 SE 13 20 7 11 - - 7.6
27/02:00pm 20.1 20.1 17.3 84 1.7 SE 13 22 7 12 - - 7.6
27/01:30pm 19.0 19.7 18.0 94 0.6 ESE 11 19 6 10 - - 7.4
27/01:00pm 18.9 19.2 17.9 94 0.6 SE 13 24 7 13 - - 2.8
27/12:30pm 20.0 20.2 17.7 86 1.4 S 13 19 7 10 - - 0.2
27/12:00pm 21.0 21.0 17.2 79 2.3 SE 13 19 7 10 - - 0.2
27/11:30am 19.6 17.7 15.2 76 2.6 SE 19 26 10 14 - - 0.2
27/11:00am 20.8 21.0 17.6 82 2.0 SE 13 22 7 12 - - 0.2
27/10:30am 19.9 20.7 18.1 89 1.1 S 11 20 6 11 - - 0.2
27/10:00am 19.9 19.7 18.6 92 0.8 S 17 32 9 17 - - 0.0
27/09:30am 20.1 20.2 18.3 89 1.1 S 15 26 8 14 - - 0.0
27/09:00am 20.2 19.6 17.6 85 1.6 S 17 30 9 16 - - 0.6
27/08:30am 20.9 20.6 17.3 80 2.2 SE 15 24 8 13 - - 0.6
27/08:00am 21.0 21.3 17.8 82 2.0 SSE 13 20 7 11 - - 0.6
27/07:30am 20.5 21.2 17.9 85 1.6 SSE 11 19 6 10 - - 0.6
27/07:00am 20.3 21.5 18.2 88 1.3 S 9 13 5 7 - - 0.6
27/06:30am 20.0 21.3 18.4 90 1.0 S 9 15 5 8 - - 0.6
27/06:00am 19.9 21.2 18.5 92 0.9 S 9 20 5 11 - - 0.6
27/05:30am 19.9 21.2 18.5 92 0.9 S 9 17 5 9 - - 0.6
27/05:00am 19.9 21.5 19.1 95 0.5 S 9 15 5 8 - - 0.6
27/04:30am 20.0 21.8 19.5 97 0.3 SSE 9 15 5 8 - - 0.6
27/04:00am 19.9 22.2 19.4 97 0.3 SSE 6 7 3 4 - - 0.6
27/03:30am 19.8 23.2 19.3 97 0.3 CALM 0 0 0 0 - - 0.4
27/03:00am 19.8 22.3 19.0 95 0.5 SSW 4 9 2 5 - - 0.0
27/02:30am 19.7 22.4 18.7 94 0.6 SSW 2 7 1 4 - - 0.0
27/02:00am 19.7 - 18.4 92 0.8 - - - - - - - 0.0
27/01:30am 19.6 22.4 18.0 90 1.0 CALM 0 4 0 2 - - 0.0
27/01:00am 19.9 22.0 18.0 89 1.2 SE 4 7 2 4 - - 0.0
27/12:30am 19.8 21.2 17.7 88 1.3 S 7 11 4 6 - - 0.0
27/12:00am 20.0 21.3 17.6 86 1.5 S 7 11 4 6 - - 0.0
 
Date/Time
EDT
Temp
°C
App
Temp
°C
Dew
Point
Rel
Hum
%
Delta-T
°C
Wind Press
QNH
hPa
Press
MSL
hPa
Rain
since 9 am
mm
Dir
 
Spd
km/h
Gust
km/h
Spd
kts
Gust
kts
26/11:30pm 19.9 20.8 17.5 86 1.5 S 9 13 5 7 - - 0.0
26/11:00pm 19.9 20.6 17.1 84 1.7 S 9 15 5 8 - - 0.0
26/10:30pm 20.0 20.3 17.0 83 1.8 SSE 11 15 6 8 - - 0.0
26/10:00pm 20.1 20.1 17.1 83 1.8 S 13 17 7 9 - - 0.0
26/09:30pm 21.3 22.0 17.0 76 2.6 SE 9 15 5 8 - - 0.0
26/09:00pm 21.9 22.7 17.2 74 2.9 ESE 9 19 5 10 - - 0.0
26/08:30pm 22.6 22.8 16.7 69 3.6 E 11 15 6 8 - - 0.0
26/08:00pm 23.0 22.8 16.6 67 3.9 ENE 13 19 7 10 - - 0.0
26/07:30pm 23.6 23.4 16.8 65 4.2 ENE 13 24 7 13 - - 0.0
26/07:00pm 24.2 23.7 16.9 63 4.5 ENE 15 26 8 14 - - 0.0
26/06:30pm 24.7 23.7 16.6 60 5.0 ENE 17 26 9 14 - - 0.0
26/06:00pm 25.7 24.2 16.8 58 5.5 ENE 20 28 11 15 - - 0.0
26/05:30pm 26.1 24.4 17.1 57 5.6 E 22 33 12 18 - - 0.0
26/05:00pm 26.4 25.3 17.3 57 5.7 ESE 19 28 10 15 - - 0.0
26/04:30pm 26.9 26.9 17.3 55 6.0 SE 13 20 7 11 - - 0.0
26/04:00pm 26.0 25.5 17.0 57 5.6 SSE 15 26 8 14 - - 0.0
26/03:30pm 26.6 25.3 17.3 56 5.8 SE 20 30 11 16 - - 0.0
26/03:00pm 27.0 27.0 17.1 54 6.2 SE 13 20 7 11 - - 0.0
26/02:30pm 27.4 28.1 17.0 53 6.5 SSE 9 17 5 9 - - 0.0
26/02:00pm 26.8 26.4 17.2 55 6.0 ESE 15 22 8 12 - - 0.0
26/01:30pm 25.3 25.0 16.5 58 5.4 S 13 19 7 10 - - 0.0
26/01:00pm 24.8 24.5 16.5 60 5.1 ESE 13 19 7 10 - - 0.0
26/12:30pm 24.4 24.2 16.8 62 4.7 SE 13 17 7 9 - - 0.0
26/12:00pm 24.4 23.7 16.4 61 4.9 ESE 15 20 8 11 - - 0.0
26/11:30am 24.3 24.6 16.1 60 5.0 ESE 9 15 5 8 - - 0.0
26/11:00am 23.5 23.2 16.5 65 4.3 ESE 13 19 7 10 - - 0.0
26/10:30am 23.3 22.9 16.2 64 4.3 ESE 13 20 7 11 - - 0.0
26/10:00am 23.1 22.8 16.4 66 4.1 ENE 13 20 7 11 - - 0.0
26/09:30am 21.6 20.7 15.9 70 3.4 E 15 20 8 11 - - 0.0
26/09:00am 21.3 20.5 16.0 72 3.2 ESE 15 19 8 10 - - 0.0
26/08:30am 21.0 20.1 15.8 72 3.1 ESE 15 24 8 13 - - 0.0
26/08:00am 19.9 19.7 15.7 77 2.5 ESE 11 19 6 10 - - 0.0
26/07:30am 19.3 19.9 15.8 80 2.1 SE 7 9 4 5 - - 0.0
26/07:00am 19.2 19.2 15.3 78 2.3 SSE 9 11 5 6 - - 0.0
26/06:30am 19.0 19.0 15.3 79 2.2 SE 9 13 5 7 - - 0.0
26/06:00am 18.8 18.9 15.4 80 2.0 ESE 9 13 5 7 - - 0.0
26/05:30am 18.6 19.1 15.5 82 1.8 SE 7 9 4 5 - - 0.0
26/05:00am 18.6 19.0 15.4 81 1.9 SE 7 9 4 5 - - 0.0
26/04:30am 18.6 18.6 15.2 80 2.0 SE 9 13 5 7 - - 0.0
26/04:00am 18.5 18.5 15.3 81 1.9 SE 9 13 5 7 - - 0.0
26/03:30am 18.6 18.2 15.2 80 2.0 SE 11 13 6 7 - - 0.0
26/03:00am 18.5 18.1 15.3 81 1.9 SE 11 15 6 8 - - 0.0
26/02:30am 18.5 17.8 15.3 81 1.9 SE 13 17 7 9 - - 0.0
26/02:00am 18.5 17.8 15.4 82 1.8 SE 13 17 7 9 - - 0.0
26/01:30am 18.2 18.3 15.5 84 1.6 SSE 9 13 5 7 - - 0.0
26/01:00am 18.0 18.1 15.4 85 1.5 S 9 11 5 6 - - 0.0
26/12:30am 17.9 18.0 15.5 86 1.4 S 9 11 5 6 - - 0.0
26/12:00am 18.0 18.0 15.3 84 1.6 SSE 9 13 5 7 - - 0.0
 
Date/Time
EDT
Temp
°C
App
Temp
°C
Dew
Point
Rel
Hum
%
Delta-T
°C
Wind Press
QNH
hPa
Press
MSL
hPa
Rain
since 9 am
mm
Dir
 
Spd
km/h
Gust
km/h
Spd
kts
Gust
kts
25/11:30pm 18.3 18.4 15.4 83 1.7 S 9 11 5 6 - - 0.0
25/11:00pm 18.8 18.8 15.2 79 2.1 SE 9 13 5 7 - - 0.0
25/10:30pm 19.1 19.2 15.4 79 2.2 ESE 9 15 5 8 - - 0.0
25/10:00pm 19.2 19.3 15.5 79 2.2 ESE 9 13 5 7 - - 0.0
25/09:30pm 19.5 18.8 15.4 77 2.4 E 13 19 7 10 - - 0.0
25/09:00pm 20.0 18.9 15.4 75 2.7 E 15 22 8 12 - - 0.0
25/08:30pm 20.2 19.8 15.3 73 2.9 E 11 20 6 11 - - 0.0
25/08:00pm 20.2 19.9 15.5 74 2.8 E 11 15 6 8 - - 0.0
25/07:30pm 20.3 18.8 15.4 73 2.9 E 17 24 9 13 - - 0.0
25/07:00pm 20.7 19.7 15.5 72 3.1 E 15 22 8 12 - - 0.0
25/06:30pm 20.9 20.2 15.5 71 3.2 ESE 13 19 7 10 - - 0.0
25/06:00pm 20.9 19.7 15.0 69 3.5 SE 15 22 8 12 - - 0.0
25/05:30pm 21.0 19.5 15.3 70 3.4 SE 17 24 9 13 - - 0.0
25/05:00pm 21.4 19.9 15.3 68 3.6 SE 17 26 9 14 - - 0.0
25/04:30pm 22.0 20.7 15.8 68 3.7 SE 17 26 9 14 - - 0.0
25/04:00pm 21.8 20.1 15.8 68 3.6 SE 19 32 10 17 - - 0.0
25/03:30pm 21.8 20.1 16.2 70 3.4 SE 20 30 11 16 - - 0.0
25/03:00pm 22.4 20.4 16.5 69 3.6 SE 22 33 12 18 - - 0.0
25/02:30pm 23.3 21.0 16.6 66 4.1 SE 24 33 13 18 - - 0.0
25/02:00pm 22.9 21.1 16.1 65 4.1 SE 20 35 11 19 - - 0.0
25/01:30pm 22.8 21.4 16.9 69 3.6 SE 20 37 11 20 - - 0.0
25/01:00pm 27.4 26.1 14.8 46 7.6 SSW 15 24 8 13 - - 0.0
25/12:30pm 27.7 26.5 15.0 45 7.7 SW 15 26 8 14 - - 0.0
25/12:00pm 28.2 25.5 13.6 40 8.7 WSW 20 28 11 15 - - 0.0
25/11:30am 27.1 26.2 16.8 53 6.4 W 17 28 9 15 - - 0.0
25/11:00am 27.4 27.8 19.0 60 5.4 W 15 26 8 14 - - 0.0
25/10:30am 25.8 25.8 18.2 63 4.8 W 15 20 8 11 - - 0.0
25/10:00am 25.3 26.0 18.9 67 4.1 WNW 13 24 7 13 - - 0.0
25/09:30am 24.8 24.5 19.2 71 3.6 W 19 28 10 15 - - 0.0
25/09:00am 24.8 25.1 19.5 72 3.4 WNW 17 30 9 16 - - 13.0
25/08:30am 24.5 24.9 19.0 71 3.5 W 15 24 8 13 - - 13.0
25/08:00am 24.1 25.8 19.3 74 3.1 WNW 9 13 5 7 - - 13.0
25/07:30am 23.4 24.2 19.0 76 2.8 N 13 19 7 10 - - 13.0
25/07:00am 23.6 23.6 18.9 75 3.0 NW 17 26 9 14 - - 13.0
25/06:30am 23.6 23.2 18.9 75 3.0 NW 19 35 10 19 - - 13.0
25/06:00am 23.9 23.9 18.9 73 3.2 NW 17 30 9 16 - - 13.0
25/05:30am 23.9 25.4 19.0 74 3.1 WNW 9 17 5 9 - - 13.0
25/05:00am 23.7 24.6 19.2 76 2.9 NNW 13 17 7 9 - - 13.0
25/04:30am 23.7 25.1 19.5 77 2.7 NW 11 15 6 8 - - 13.0
25/04:00am 23.9 25.2 19.4 76 2.9 W 11 17 6 9 - - 13.0
25/03:30am 24.0 24.5 19.3 75 3.0 WNW 15 26 8 14 - - 13.0
25/03:00am 24.5 25.3 19.0 71 3.5 WNW 13 24 7 13 - - 13.0
25/02:30am 23.5 25.7 20.3 82 2.1 NW 9 13 5 7 - - 13.0
25/02:00am 22.9 25.9 21.2 90 1.1 ENE 7 9 4 5 - - 13.0
25/01:30am 23.1 26.1 21.3 90 1.2 N 7 11 4 6 - - 13.0
25/01:00am 23.1 25.8 21.4 90 1.1 N 9 9 5 5 - - 13.0
25/12:30am 23.1 26.0 21.7 92 0.9 N 9 13 5 7 - - 12.2
25/12:00am 23.0 26.3 21.8 93 0.8 NNW 7 11 4 6 - - 12.2
 
Date/Time
EDT
Temp
°C
App
Temp
°C
Dew
Point
Rel
Hum
%
Delta-T
°C
Wind Press
QNH
hPa
Press
MSL
hPa
Rain
since 9 am
mm
Dir
 
Spd
km/h
Gust
km/h
Spd
kts
Gust
kts
24/11:30pm 22.7 26.2 22.1 96 0.4 NW 7 9 4 5 - - 11.8
24/11:00pm 23.0 26.1 22.1 95 0.6 W 9 15 5 8 - - 11.6
24/10:30pm 23.5 27.7 21.7 90 1.2 SE 2 7 1 4 - - 10.2
24/10:00pm 23.0 26.6 22.1 95 0.6 W 6 7 3 4 - - 10.2
24/09:30pm 23.2 27.2 22.0 93 0.8 S 4 9 2 5 - - 10.2
24/09:00pm 23.3 27.5 21.8 91 1.0 SSE 2 6 1 3 - - 10.2
24/08:30pm 23.9 26.7 21.5 86 1.6 NNE 9 15 5 8 - - 10.2
24/08:00pm 23.7 25.3 21.4 87 1.5 ENE 15 19 8 10 - - 10.2
24/07:30pm 23.7 25.6 21.3 86 1.6 N 13 20 7 11 - - 9.8
24/07:00pm 23.5 27.1 22.1 92 0.9 NNW 6 11 3 6 - - 9.6

Other Formats:

Comma delimited format used in spreadsheet applications
http://www.bom.gov.au/fwo/IDN60801/IDN60801.94775.axf

JavaScript Object Notation format (JSON) in row-major order
http://www.bom.gov.au/fwo/IDN60801/IDN60801.94775.json